Westcliff-on-Sea, United Kingdom
Current Conditions -  °F | °C
As of 4:20 PM on Tuesday 27 Jan 2015 (Local Time) from EGMC Reporting Station
Broken Clouds Broken Clouds  
Wind Chill: 41°   Ceiling: 2700
Heat Index: 46°   Visibility: 6mi
Dew Point: 37°   Wind: 12mph
Humidity: 71%   Direction: 250°WSW
Pressure: 30.27"   Gusts: NA
Location:  51.55°N, 0.68°E
Report Text: EGMC 271620Z 25010KT 9999 FEW023 BKN027 08/03 Q1025
Loading
Personal Weather Stations






























Interactive Weather Map New forecast layout! Learn more

10-Day Weather Forecast

Advertisements
Track Severe Weather on mobile